createdAt,value
2023-05-11T00:02:18.336Z,18.93
2023-05-11T00:04:44.952Z,18.17
2023-05-11T00:07:11.475Z,19.17
2023-05-11T00:09:38.834Z,18.30
2023-05-11T00:12:05.539Z,21.67
2023-05-11T00:14:32.221Z,18.40
2023-05-11T00:16:59.073Z,18.87
2023-05-11T00:19:25.602Z,19.10
2023-05-11T00:21:52.187Z,21.23
2023-05-11T00:24:18.674Z,17.83
2023-05-11T00:26:45.497Z,17.43
2023-05-11T00:29:11.992Z,18.73
2023-05-11T00:31:38.752Z,18.93
2023-05-11T00:34:05.271Z,18.80
2023-05-11T00:36:31.858Z,18.13
2023-05-11T00:38:58.379Z,18.93
2023-05-11T00:41:24.864Z,20.50
2023-05-11T00:43:51.521Z,20.53
2023-05-11T00:46:18.210Z,20.83
2023-05-11T00:48:44.838Z,19.83
2023-05-11T00:51:12.557Z,18.90
2023-05-11T00:53:39.108Z,19.70
2023-05-11T00:56:05.649Z,20.87
2023-05-11T00:58:32.673Z,20.73
2023-05-11T01:00:59.239Z,21.03
2023-05-11T01:03:26.836Z,20.87
2023-05-11T01:05:53.823Z,20.93
2023-05-11T01:08:24.718Z,20.50
2023-05-11T01:10:54.017Z,21.53
2023-05-11T01:13:31.285Z,19.93
2023-05-11T01:16:01.824Z,21.00
2023-05-11T01:18:28.607Z,23.33
2023-05-11T01:21:02.434Z,20.73
2023-05-11T01:23:29.020Z,20.63
2023-05-11T01:26:11.792Z,22.17
2023-05-11T01:29:07.392Z,22.97
2023-05-11T01:31:34.655Z,22.53
2023-05-11T01:34:05.323Z,23.50
2023-05-11T01:36:39.705Z,21.97
2023-05-11T01:39:08.951Z,21.50
2023-05-11T01:41:37.312Z,21.00
2023-05-11T01:44:05.714Z,20.70
2023-05-11T01:46:33.762Z,20.07
2023-05-11T01:49:01.756Z,19.47
2023-05-11T01:51:31.654Z,21.00
2023-05-11T01:53:59.397Z,21.40
2023-05-11T01:56:27.032Z,20.30
2023-05-11T01:58:54.377Z,20.77
2023-05-11T02:01:21.015Z,20.83
2023-05-11T02:03:48.441Z,19.70
2023-05-11T02:06:15.700Z,18.87
2023-05-11T02:08:42.244Z,18.87
2023-05-11T02:11:10.671Z,19.37
2023-05-11T02:13:38.689Z,19.27
2023-05-11T02:16:06.576Z,19.00
2023-05-11T02:18:33.434Z,19.87
2023-05-11T02:21:00.813Z,16.97
2023-05-11T02:23:27.944Z,16.97
2023-05-11T02:25:54.874Z,17.80
2023-05-11T02:28:21.494Z,17.07
2023-05-11T02:30:52.510Z,16.70
2023-05-11T02:33:27.383Z,15.77
2023-05-11T02:35:56.068Z,16.93
2023-05-11T02:38:25.133Z,21.00
2023-05-11T02:40:55.524Z,16.60
2023-05-11T02:43:24.826Z,16.70
2023-05-11T02:45:54.198Z,17.93
2023-05-11T02:48:26.741Z,19.40
2023-05-11T02:50:55.169Z,19.10
2023-05-11T02:53:23.636Z,19.80
2023-05-11T02:55:51.345Z,18.50
2023-05-11T02:58:18.685Z,19.40
2023-05-11T03:00:45.975Z,18.47
2023-05-11T03:03:13.119Z,19.40
2023-05-11T03:05:40.077Z,20.63
2023-05-11T03:08:07.006Z,20.00
2023-05-11T03:10:34.533Z,21.83
2023-05-11T03:13:01.770Z,20.20
2023-05-11T03:15:28.595Z,22.40
2023-05-11T03:17:55.528Z,23.13
2023-05-11T03:20:22.407Z,37.03
2023-05-11T03:22:49.975Z,24.90
2023-05-11T03:25:17.386Z,21.97
2023-05-11T03:27:45.253Z,21.80
2023-05-11T03:30:12.823Z,21.70
2023-05-11T03:32:39.483Z,21.80
2023-05-11T03:35:06.424Z,21.93
2023-05-11T03:37:33.450Z,21.97
2023-05-11T03:40:01.192Z,20.67
2023-05-11T03:42:28.090Z,20.93
2023-05-11T03:44:58.949Z,22.23
2023-05-11T03:47:29.180Z,22.10
2023-05-11T03:49:56.946Z,22.67
2023-05-11T03:52:23.678Z,23.27
2023-05-11T03:54:50.334Z,24.97
2023-05-11T03:57:16.998Z,23.47
2023-05-11T03:59:43.613Z,26.27
2023-05-11T04:02:10.450Z,28.03
2023-05-11T04:04:37.213Z,30.17
2023-05-11T04:07:03.993Z,25.87
2023-05-11T04:09:31.200Z,27.63
2023-05-11T04:11:57.821Z,28.60
2023-05-11T04:14:24.425Z,27.53
2023-05-11T04:16:51.516Z,26.47
2023-05-11T04:19:18.180Z,24.80
2023-05-11T04:21:45.007Z,26.73
2023-05-11T04:24:11.609Z,26.43
2023-05-11T04:26:38.329Z,26.40
2023-05-11T04:29:05.270Z,26.03
2023-05-11T04:31:33.283Z,27.30
2023-05-11T04:34:00.086Z,27.87
2023-05-11T04:36:26.730Z,31.50
2023-05-11T04:38:53.538Z,30.13
2023-05-11T04:41:20.120Z,29.83
2023-05-11T04:43:46.703Z,28.77
2023-05-11T04:46:13.438Z,29.73
2023-05-11T04:48:40.217Z,29.53
2023-05-11T04:51:07.106Z,35.53
2023-05-11T04:53:33.717Z,30.83
2023-05-11T04:56:00.397Z,33.40
2023-05-11T04:58:27.050Z,34.57
2023-05-11T05:00:54.228Z,36.53
2023-05-11T05:03:21.174Z,36.70
2023-05-11T05:05:48.052Z,34.10
2023-05-11T05:08:14.939Z,37.20
2023-05-11T05:10:41.555Z,36.60
2023-05-11T05:13:08.206Z,34.33
2023-05-11T05:15:34.867Z,32.53
2023-05-11T05:18:01.504Z,37.30
2023-05-11T05:20:28.224Z,37.87
2023-05-11T05:22:55.435Z,35.07
2023-05-11T05:25:22.532Z,34.80
2023-05-11T05:27:49.195Z,36.47
2023-05-11T05:30:16.266Z,36.37
2023-05-11T05:32:43.214Z,36.57
2023-05-11T05:35:09.959Z,35.27
2023-05-11T05:37:37.898Z,35.20
2023-05-11T05:40:05.140Z,34.97
2023-05-11T05:42:32.098Z,38.90
2023-05-11T05:44:58.745Z,38.27
2023-05-11T05:47:25.677Z,33.83
2023-05-11T05:49:52.361Z,30.90
2023-05-11T05:52:18.999Z,30.07
2023-05-11T05:54:45.790Z,31.13
2023-05-11T05:57:13.767Z,33.30
2023-05-11T05:59:42.200Z,34.70
2023-05-11T06:02:08.950Z,32.70
2023-05-11T06:04:35.587Z,35.30
2023-05-11T06:07:02.281Z,33.33
2023-05-11T06:09:28.917Z,33.53
2023-05-11T06:11:56.138Z,29.70
2023-05-11T06:14:23.145Z,28.57
2023-05-11T06:16:49.874Z,28.07
2023-05-11T06:19:16.728Z,28.60
2023-05-11T06:21:45.436Z,27.97
2023-05-11T06:24:12.367Z,31.43
2023-05-11T06:26:39.656Z,28.03
2023-05-11T06:29:06.310Z,29.07
2023-05-11T06:31:33.302Z,29.87
2023-05-11T06:33:59.946Z,29.27
2023-05-11T06:36:26.634Z,35.20
2023-05-11T06:38:53.790Z,31.33
2023-05-11T06:41:21.999Z,31.40
2023-05-11T06:43:48.591Z,27.20
2023-05-11T06:46:18.003Z,27.33
2023-05-11T06:48:45.179Z,28.57
2023-05-11T06:51:12.079Z,27.27
2023-05-11T06:53:39.036Z,28.03
2023-05-11T06:56:05.847Z,29.97
2023-05-11T06:58:32.513Z,30.57
2023-05-11T07:00:59.167Z,28.47
2023-05-11T07:03:25.757Z,32.17
2023-05-11T07:05:52.731Z,32.43
2023-05-11T07:08:19.798Z,29.70
2023-05-11T07:10:46.446Z,37.23
2023-05-11T07:13:13.187Z,33.43
2023-05-11T07:15:39.842Z,31.40
2023-05-11T07:18:06.534Z,29.27
2023-05-11T07:20:34.201Z,27.50
2023-05-11T07:23:00.812Z,28.83
2023-05-11T07:25:27.379Z,30.27
2023-05-11T07:27:54.001Z,30.07
2023-05-11T07:30:21.456Z,30.90
2023-05-11T07:32:48.876Z,29.83
2023-05-11T07:35:15.530Z,30.37
2023-05-11T07:37:42.344Z,27.73
2023-05-11T07:40:09.150Z,27.97
2023-05-11T07:42:35.919Z,26.03
2023-05-11T07:45:02.531Z,26.57
2023-05-11T07:47:29.222Z,23.47
2023-05-11T07:49:55.933Z,19.60
2023-05-11T07:52:22.508Z,20.03
2023-05-11T07:54:49.237Z,20.80
2023-05-11T07:57:15.785Z,22.13
2023-05-11T07:59:42.341Z,21.90
2023-05-11T08:02:10.963Z,25.03
2023-05-11T08:04:39.490Z,26.83
2023-05-11T08:07:06.098Z,26.93
2023-05-11T08:09:32.752Z,27.83
2023-05-11T08:12:01.785Z,27.63
2023-05-11T08:14:28.584Z,23.50
2023-05-11T08:16:55.091Z,20.63
2023-05-11T08:19:25.473Z,21.70
2023-05-11T08:21:52.558Z,23.17
2023-05-11T08:24:19.047Z,22.30
2023-05-11T08:26:45.687Z,21.50
2023-05-11T08:29:12.651Z,22.57
2023-05-11T08:31:40.428Z,18.73
2023-05-11T08:34:18.713Z,19.43
2023-05-11T08:36:46.061Z,19.73
2023-05-11T08:39:13.246Z,20.83
2023-05-11T08:41:39.837Z,20.43
2023-05-11T08:44:06.580Z,24.07
2023-05-11T08:46:35.697Z,23.83
2023-05-11T08:49:03.036Z,21.70
2023-05-11T08:51:29.594Z,26.17
2023-05-11T08:53:57.958Z,25.67
2023-05-11T08:56:25.973Z,25.10
2023-05-11T08:58:55.947Z,26.07
2023-05-11T09:01:23.537Z,28.00
2023-05-11T09:03:50.711Z,28.77
2023-05-11T09:06:18.347Z,27.03
2023-05-11T09:08:45.950Z,27.17
2023-05-11T09:11:12.926Z,27.53
2023-05-11T09:13:39.521Z,22.33
2023-05-11T09:16:13.859Z,27.97
2023-05-11T09:18:51.096Z,27.30
2023-05-11T09:21:18.249Z,26.63
2023-05-11T09:23:44.826Z,26.37
2023-05-11T09:26:15.114Z,25.30
2023-05-11T09:31:39.870Z,28.07
2023-05-11T09:34:10.332Z,26.70
2023-05-11T09:36:37.010Z,27.13
2023-05-11T09:39:04.251Z,24.73
2023-05-11T09:41:34.838Z,26.40
2023-05-11T09:44:10.305Z,28.47
2023-05-11T09:46:37.562Z,24.33
2023-05-11T09:49:04.728Z,27.70
2023-05-11T09:51:32.535Z,28.87
2023-05-11T09:53:59.671Z,24.40
2023-05-11T09:56:46.515Z,26.47
2023-05-11T09:59:14.907Z,28.93
2023-05-11T10:01:41.625Z,26.53
2023-05-11T10:04:21.986Z,22.30
2023-05-11T10:06:55.813Z,29.70
2023-05-11T10:09:26.749Z,26.03
2023-05-11T10:11:53.717Z,24.77
2023-05-11T10:14:20.998Z,22.13
2023-05-11T10:16:47.827Z,24.93
2023-05-11T10:19:15.214Z,24.50
2023-05-11T10:21:41.762Z,25.57
2023-05-11T10:24:08.456Z,27.40
2023-05-11T10:26:35.471Z,26.53
2023-05-11T10:29:02.892Z,26.37
2023-05-11T10:31:30.019Z,26.33
2023-05-11T10:33:57.484Z,25.73
2023-05-11T10:36:24.482Z,27.87
2023-05-11T10:38:51.259Z,23.97
2023-05-11T10:41:28.334Z,25.47
2023-05-11T10:44:13.134Z,24.33
2023-05-11T10:46:42.664Z,25.10
2023-05-11T10:49:14.608Z,26.13
2023-05-11T10:52:16.953Z,30.57
2023-05-11T10:54:46.956Z,26.63
2023-05-11T10:57:14.068Z,49.03
2023-05-11T10:59:55.978Z,43.93
2023-05-11T11:02:22.582Z,30.90
2023-05-11T11:04:50.515Z,30.60
2023-05-11T11:07:18.741Z,30.30
2023-05-11T11:09:57.261Z,26.70
2023-05-11T11:12:24.880Z,23.43
2023-05-11T11:14:59.346Z,26.40
2023-05-11T11:17:31.447Z,24.37
2023-05-11T11:19:58.939Z,24.53
2023-05-11T11:22:34.844Z,21.90
2023-05-11T11:25:06.010Z,22.93
2023-05-11T11:27:41.632Z,22.10
2023-05-11T11:30:28.996Z,28.47
2023-05-11T11:33:16.193Z,23.83
2023-05-11T11:35:43.091Z,23.80
2023-05-11T11:38:13.953Z,26.90
2023-05-11T11:40:51.251Z,29.17
2023-05-11T11:43:20.082Z,29.47
2023-05-11T11:45:57.027Z,28.20
2023-05-11T11:48:37.086Z,28.57
2023-05-11T11:51:06.777Z,29.20
2023-05-11T11:53:36.551Z,34.80
2023-05-11T11:56:03.555Z,28.83
2023-05-11T11:58:45.477Z,27.17
2023-05-11T12:01:16.074Z,28.07
2023-05-11T12:03:43.610Z,29.37
2023-05-11T12:06:10.684Z,28.17
2023-05-11T12:08:37.969Z,30.87
2023-05-11T12:11:05.206Z,29.07
2023-05-11T12:13:32.106Z,29.60
2023-05-11T12:16:12.595Z,30.53
2023-05-11T12:18:39.800Z,29.20
2023-05-11T12:21:06.494Z,28.80
2023-05-11T12:23:33.062Z,25.20
2023-05-11T12:26:06.898Z,27.27
2023-05-11T12:28:33.765Z,30.27
2023-05-11T12:31:00.825Z,25.13
2023-05-11T12:33:27.590Z,28.17
2023-05-11T12:35:55.667Z,28.60
2023-05-11T12:38:22.497Z,25.27
2023-05-11T12:40:50.213Z,27.97
2023-05-11T12:43:20.277Z,28.27
2023-05-11T12:45:46.960Z,29.47
2023-05-11T12:48:14.296Z,29.00
2023-05-11T12:50:43.906Z,28.13
2023-05-11T12:53:15.210Z,25.90
2023-05-11T12:55:42.106Z,25.57
2023-05-11T12:58:12.339Z,26.80
2023-05-11T13:00:51.042Z,22.80
2023-05-11T13:03:24.188Z,19.40
2023-05-11T13:05:51.015Z,23.10
2023-05-11T13:08:19.418Z,21.50
2023-05-11T13:10:47.482Z,20.27
2023-05-11T13:13:27.626Z,22.47
2023-05-11T13:15:54.407Z,25.07
2023-05-11T13:18:21.212Z,23.07
2023-05-11T13:20:47.798Z,25.67
2023-05-11T13:23:15.623Z,24.43
2023-05-11T13:25:45.257Z,25.87
2023-05-11T13:28:12.147Z,28.53
2023-05-11T13:30:38.809Z,21.60
2023-05-11T13:33:05.430Z,25.30
2023-05-11T13:35:32.473Z,28.50
2023-05-11T13:37:59.001Z,25.57
2023-05-11T13:40:25.604Z,26.40
2023-05-11T13:42:52.177Z,29.27
2023-05-11T13:45:18.954Z,28.73
2023-05-11T13:47:46.646Z,29.97
2023-05-11T13:50:13.902Z,29.17
2023-05-11T13:52:40.647Z,28.23
2023-05-11T13:55:07.433Z,27.57
2023-05-11T13:57:34.399Z,26.00
2023-05-11T14:00:01.089Z,27.87
2023-05-11T14:02:27.827Z,24.77
2023-05-11T14:04:54.661Z,24.93
2023-05-11T14:07:23.877Z,22.13
2023-05-11T14:09:52.668Z,25.20
2023-05-11T14:12:19.294Z,22.30
2023-05-11T14:14:45.920Z,25.23
2023-05-11T14:17:14.652Z,25.60
2023-05-11T14:19:41.239Z,23.40
2023-05-11T14:22:07.809Z,24.67
2023-05-11T14:24:34.324Z,22.53
2023-05-11T14:27:00.983Z,22.93
2023-05-11T14:29:27.548Z,20.40
2023-05-11T14:31:54.123Z,20.13
2023-05-11T14:34:20.638Z,22.87
2023-05-11T14:36:47.188Z,23.47
2023-05-11T14:39:13.678Z,21.17
2023-05-11T14:41:40.237Z,20.73
2023-05-11T14:44:06.980Z,23.10
2023-05-11T14:46:33.553Z,20.10
2023-05-11T14:49:00.161Z,19.40
2023-05-11T14:51:27.087Z,22.27
2023-05-11T14:53:53.677Z,21.43
2023-05-11T14:56:20.607Z,23.33
2023-05-11T14:58:47.549Z,24.03
2023-05-11T15:01:14.110Z,25.90
2023-05-11T15:03:41.115Z,23.17
2023-05-11T15:06:07.721Z,24.03
2023-05-11T15:08:36.703Z,22.87
2023-05-11T15:11:03.678Z,22.10
2023-05-11T15:13:30.808Z,23.43
2023-05-11T15:15:57.421Z,22.07
2023-05-11T15:18:23.979Z,12.83
2023-05-11T15:20:50.550Z,10.40
2023-05-11T15:23:17.499Z,6.87
2023-05-11T15:25:45.140Z,6.97
2023-05-11T15:28:12.193Z,7.07
2023-05-11T15:30:38.853Z,6.67
2023-05-11T15:33:05.619Z,8.03
2023-05-11T15:35:34.491Z,6.07
2023-05-11T15:38:00.981Z,6.03
2023-05-11T15:40:28.483Z,5.53
2023-05-11T15:42:57.853Z,7.07
2023-05-11T15:45:25.476Z,5.53
2023-05-11T15:47:52.326Z,10.23
2023-05-11T15:50:19.104Z,6.70
2023-05-11T15:52:45.863Z,8.40
2023-05-11T15:55:12.336Z,7.87
2023-05-11T15:57:39.057Z,6.23
2023-05-11T16:00:06.078Z,6.53
2023-05-11T16:02:32.686Z,5.93
2023-05-11T16:04:59.279Z,7.20
2023-05-11T16:07:28.706Z,5.70
2023-05-11T16:09:55.739Z,6.37
2023-05-11T16:12:22.252Z,7.17
2023-05-11T16:14:48.811Z,7.17
2023-05-11T16:17:15.562Z,6.17
2023-05-11T16:19:42.133Z,5.43
2023-05-11T16:22:08.748Z,5.33
2023-05-11T16:24:35.254Z,5.40
2023-05-11T16:27:02.289Z,7.07
2023-05-11T16:29:28.810Z,5.40
2023-05-11T16:31:56.644Z,5.50
2023-05-11T16:34:23.383Z,5.37
2023-05-11T16:36:49.953Z,5.67
2023-05-11T16:39:16.587Z,6.93
2023-05-11T16:41:43.109Z,5.87
2023-05-11T16:44:09.623Z,6.53
2023-05-11T16:46:36.193Z,7.20
2023-05-11T16:49:02.910Z,7.43
2023-05-11T16:51:29.623Z,5.53
2023-05-11T16:53:57.481Z,6.67
2023-05-11T16:56:24.107Z,5.50
2023-05-11T16:58:50.659Z,6.77
2023-05-11T17:01:17.352Z,6.03
2023-05-11T17:03:44.117Z,5.57
2023-05-11T17:06:15.920Z,6.27
2023-05-11T17:08:42.930Z,6.63
2023-05-11T17:11:09.912Z,7.93
2023-05-11T17:13:36.871Z,7.73
2023-05-11T17:16:03.846Z,7.10
2023-05-11T17:18:31.014Z,6.43
2023-05-11T17:20:57.999Z,6.77
2023-05-11T17:23:24.976Z,7.73
2023-05-11T17:25:52.000Z,8.90
2023-05-11T17:28:18.630Z,7.50
2023-05-11T17:30:48.830Z,7.27
2023-05-11T17:33:16.511Z,7.37
2023-05-11T17:35:43.391Z,9.80
2023-05-11T17:38:10.091Z,8.67
2023-05-11T17:40:36.665Z,7.93
2023-05-11T17:43:03.238Z,6.73
2023-05-11T17:45:30.191Z,7.03
2023-05-11T17:47:56.830Z,8.43
2023-05-11T17:50:23.722Z,7.10
2023-05-11T17:52:51.320Z,8.03
2023-05-11T17:55:18.123Z,6.93
2023-05-11T17:57:44.888Z,7.40
2023-05-11T18:00:11.907Z,9.17
2023-05-11T18:02:38.525Z,9.43
2023-05-11T18:05:05.799Z,9.07
2023-05-11T18:07:32.398Z,8.70
2023-05-11T18:09:58.899Z,11.83
2023-05-11T18:12:26.458Z,9.33
2023-05-11T18:14:53.058Z,12.43
2023-05-11T18:17:19.609Z,7.33
2023-05-11T18:19:46.188Z,8.23
2023-05-11T18:22:13.294Z,8.43
2023-05-11T18:24:40.003Z,5.43
2023-05-11T18:27:06.839Z,6.03
2023-05-11T18:29:33.479Z,6.93
2023-05-11T18:32:00.087Z,6.27
2023-05-11T18:34:27.871Z,5.00
2023-05-11T18:36:54.388Z,5.47
2023-05-11T18:39:21.314Z,10.20
2023-05-11T18:41:48.124Z,4.93
2023-05-11T18:44:15.295Z,6.33
2023-05-11T18:46:41.905Z,4.67
2023-05-11T18:49:08.482Z,6.07
2023-05-11T18:51:35.448Z,6.50
2023-05-11T18:54:02.139Z,5.00
2023-05-11T18:56:28.700Z,5.53
2023-05-11T18:58:55.246Z,6.43
2023-05-11T19:01:25.860Z,5.47
2023-05-11T19:03:56.912Z,6.40
2023-05-11T19:06:23.441Z,6.73
2023-05-11T19:08:55.202Z,8.50
2023-05-11T19:11:22.990Z,5.93
2023-05-11T19:13:50.619Z,5.67
2023-05-11T19:16:17.329Z,5.13
2023-05-11T19:18:43.967Z,5.17
2023-05-11T19:21:10.796Z,5.67
2023-05-11T19:23:37.332Z,5.10
2023-05-11T19:26:03.848Z,5.30
2023-05-11T19:28:30.913Z,9.63
2023-05-11T19:31:04.921Z,6.83
2023-05-11T19:33:31.555Z,5.73
2023-05-11T19:35:58.033Z,8.33
2023-05-11T19:38:24.651Z,7.13
2023-05-11T19:40:51.639Z,7.73
2023-05-11T19:43:18.486Z,6.70
2023-05-11T19:45:45.655Z,6.40
2023-05-11T19:48:12.867Z,7.57
2023-05-11T19:50:40.321Z,6.97
2023-05-11T19:53:07.171Z,6.37
2023-05-11T19:55:33.998Z,6.67
2023-05-11T19:58:00.704Z,6.83
2023-05-11T20:00:27.508Z,6.23
2023-05-11T20:02:55.489Z,6.70
2023-05-11T20:05:22.366Z,7.10
2023-05-11T20:07:48.859Z,7.00
2023-05-11T20:10:15.659Z,8.23
2023-05-11T20:12:42.162Z,7.53
2023-05-11T20:15:08.985Z,6.10
2023-05-11T20:17:36.228Z,9.63
2023-05-11T20:20:03.193Z,7.80
2023-05-11T20:22:31.269Z,8.30
2023-05-11T20:24:57.896Z,10.10
2023-05-11T20:27:24.782Z,9.77
2023-05-11T20:29:51.979Z,10.93
2023-05-11T20:32:18.731Z,9.10
2023-05-11T20:34:45.305Z,7.47
2023-05-11T20:37:12.203Z,9.63
2023-05-11T20:39:38.958Z,8.27
2023-05-11T20:42:05.856Z,9.93
2023-05-11T20:44:32.433Z,9.17
2023-05-11T20:46:58.986Z,10.17
2023-05-11T20:49:37.491Z,10.27
2023-05-11T20:52:06.040Z,9.70
2023-05-11T20:54:34.997Z,9.57
2023-05-11T20:57:04.967Z,9.00
2023-05-11T21:02:02.304Z,9.27
2023-05-11T21:04:31.388Z,9.20
2023-05-11T21:06:58.550Z,9.70
2023-05-11T21:09:25.663Z,9.50
2023-05-11T21:11:52.424Z,9.87
2023-05-11T21:14:19.040Z,9.63
2023-05-11T21:16:45.803Z,8.27
2023-05-11T21:19:12.453Z,10.07
2023-05-11T21:21:39.008Z,9.40
2023-05-11T21:24:06.336Z,9.40
2023-05-11T21:26:32.934Z,10.00
2023-05-11T21:28:59.558Z,9.53
2023-05-11T21:31:26.199Z,9.03
2023-05-11T21:33:53.108Z,10.93
2023-05-11T21:36:19.741Z,10.70
2023-05-11T21:38:48.450Z,10.20
2023-05-11T21:41:15.010Z,12.43
2023-05-11T21:43:41.574Z,12.87
2023-05-11T21:46:08.232Z,13.37
2023-05-11T21:48:34.810Z,11.80
2023-05-11T21:51:01.364Z,12.57
2023-05-11T21:53:28.162Z,15.17
2023-05-11T21:55:55.229Z,14.97
2023-05-11T21:58:22.072Z,16.73
2023-05-11T22:00:48.646Z,15.93
2023-05-11T22:03:15.521Z,14.47
2023-05-11T22:05:42.394Z,16.67
2023-05-11T22:08:14.895Z,18.00
2023-05-11T22:10:43.184Z,18.40
2023-05-11T22:13:09.762Z,18.03
2023-05-11T22:15:36.504Z,20.60
2023-05-11T22:18:03.782Z,19.20
2023-05-11T22:20:32.001Z,20.73
2023-05-11T22:22:59.434Z,20.87
2023-05-11T22:25:26.314Z,17.43
2023-05-11T22:27:54.199Z,19.07
2023-05-11T22:30:21.111Z,23.63
2023-05-11T22:32:48.228Z,21.33
2023-05-11T22:35:14.815Z,18.13
2023-05-11T22:37:41.368Z,17.57
2023-05-11T22:40:08.185Z,17.40
2023-05-11T22:42:34.957Z,16.90
2023-05-11T22:45:01.740Z,17.53
2023-05-11T22:47:28.318Z,16.40
2023-05-11T22:49:54.998Z,19.30
2023-05-11T22:52:21.963Z,20.27
2023-05-11T22:54:52.881Z,17.40
2023-05-11T22:57:19.368Z,20.37
2023-05-11T22:59:47.080Z,19.40
2023-05-11T23:02:13.665Z,19.43
2023-05-11T23:04:41.344Z,18.30
2023-05-11T23:07:08.086Z,19.73
2023-05-11T23:09:35.054Z,18.30
2023-05-11T23:12:01.699Z,20.00
2023-05-11T23:14:28.992Z,17.07
2023-05-11T23:16:56.875Z,17.33
2023-05-11T23:19:25.225Z,17.20
2023-05-11T23:21:51.800Z,18.43
2023-05-11T23:24:18.380Z,15.80
2023-05-11T23:26:44.983Z,17.80
2023-05-11T23:29:11.615Z,15.50
2023-05-11T23:31:38.586Z,15.53
2023-05-11T23:34:05.174Z,14.70
2023-05-11T23:36:32.375Z,14.17
2023-05-11T23:38:58.928Z,13.40
2023-05-11T23:41:25.501Z,16.10
2023-05-11T23:43:52.012Z,16.73
2023-05-11T23:46:18.633Z,19.30
2023-05-11T23:48:46.349Z,19.27
2023-05-11T23:51:13.174Z,15.77
2023-05-11T23:53:40.199Z,14.80
2023-05-11T23:56:06.953Z,15.70
2023-05-11T23:58:33.504Z,12.63
